Holsted Helipad

EKHL · 南丹麦大区, 丹麦

罗盘
风向 的 风向 的 风向 到 风向 360° 直升机
风: 4 kt, 2 beaufort
0 ft 1.000 2.000 3.000 4.000 5.000
CAVOK
METAR EKEB 221320Z 36004KT 290V070 CAVOK 09/M05 Q1025

METAR Holsted Helipad - EKHL

Holsted Helipad是,丹麦中的直升机场。 该机场位于纬度55,49667和经度8,91083。 本场的ICAO机场代码为EKHL。 机场在Kobenhavn FIR中。

该航空气象观测是针对Esbjerg Airport在2024年4月22日 15:20, 当地时间进行的。

机场观察

风向为360°,速度为4 kt。 风向在290°和070°之间变化。

天气为CAVOK。这意味着在5.000 ft或MSA(最低安全高度)以下(以较高者为准)以下没有云。这也意味着没有观测到积雨云或高耸的积云,可见度为10 km 或者更多或更高。此外,不会有雾,降雨或其他重要天气。

温度为9 °C,阵风为7 °C。 露点为-5 °C,相对湿度为37%。 海平面上的气压为1025 hPa (QNH)。

白天

今天,太阳从06:01升起,在20:44降落。 这适用于Holsted Helipad,世界夏令时可能有所不同。 当地时间与世界标准时间之间的时差为+2 小时。 夏令时目前正在进行中。

公司介绍

我们没有关于这个机场的公司信息。

体会

到Vliegles.nl去找飞行课程,跳伞和其他飞行体验。 浏览页面,了解Holsted Helipad附近所有可用的活动。 你也可以使用搜索功能来寻找你所在地附近的特定飞行课程、跳伞或其他飞行体验。

温度 & 天气

温度 9 °C
露点 -5 °C
相对湿度 37%
风寒 7 °C
Kp-index 1 (0-9)

白天

日出
06:02
中午
13:24
日落
20:45 (4:46)

小工具

你想在你的网站上有一个关于Holsted Helipad的当前航空天气(METAR)的小部件吗?

显示HTML代码
报告变更